sensor_id;sensor_type;location;lat;lon;timestamp;temperature;humidity
60293;DHT22;52402;52.670;6.750;2023-11-21T00:01:11;8.00;99.90
60293;DHT22;52402;52.670;6.750;2023-11-21T00:03:40;8.00;99.90
60293;DHT22;52402;52.670;6.750;2023-11-21T00:06:06;7.90;99.90
60293;DHT22;52402;52.670;6.750;2023-11-21T00:08:35;8.00;99.90
60293;DHT22;52402;52.670;6.750;2023-11-21T00:11:03;8.00;99.90
60293;DHT22;52402;52.670;6.750;2023-11-21T00:13:32;7.90;99.90
60293;DHT22;52402;52.670;6.750;2023-11-21T00:15:58;8.00;99.90
60293;DHT22;52402;52.670;6.750;2023-11-21T00:18:27;8.00;99.90
60293;DHT22;52402;52.670;6.750;2023-11-21T00:20:55;8.00;99.90
60293;DHT22;52402;52.670;6.750;2023-11-21T00:23:20;8.00;99.90
60293;DHT22;52402;52.670;6.750;2023-11-21T00:25:51;8.10;99.90
60293;DHT22;52402;52.670;6.750;2023-11-21T00:28:16;8.10;99.90
60293;DHT22;52402;52.670;6.750;2023-11-21T00:30:42;8.10;99.90
60293;DHT22;52402;52.670;6.750;2023-11-21T00:33:10;8.10;99.90
60293;DHT22;52402;52.670;6.750;2023-11-21T00:35:36;8.10;99.90
60293;DHT22;52402;52.670;6.750;2023-11-21T00:38:02;8.10;99.90
60293;DHT22;52402;52.670;6.750;2023-11-21T00:40:31;8.10;99.90
60293;DHT22;52402;52.670;6.750;2023-11-21T00:42:57;8.10;99.90
60293;DHT22;52402;52.670;6.750;2023-11-21T00:45:22;8.10;99.90
60293;DHT22;52402;52.670;6.750;2023-11-21T00:47:48;8.10;99.90
60293;DHT22;52402;52.670;6.750;2023-11-21T00:50:13;8.10;99.90
60293;DHT22;52402;52.670;6.750;2023-11-21T00:52:39;8.10;99.90
60293;DHT22;52402;52.670;6.750;2023-11-21T00:55:05;8.10;99.90
60293;DHT22;52402;52.670;6.750;2023-11-21T00:57:32;8.10;99.90
60293;DHT22;52402;52.670;6.750;2023-11-21T00:59:58;8.10;99.90
60293;DHT22;52402;52.670;6.750;2023-11-21T01:02:24;8.10;99.90
60293;DHT22;52402;52.670;6.750;2023-11-21T01:04:52;8.10;99.90
60293;DHT22;52402;52.670;6.750;2023-11-21T01:07:18;8.10;99.90
60293;DHT22;52402;52.670;6.750;2023-11-21T01:09:48;8.10;99.90
60293;DHT22;52402;52.670;6.750;2023-11-21T01:12:14;8.10;99.90
60293;DHT22;52402;52.670;6.750;2023-11-21T01:14:39;8.10;99.90
60293;DHT22;52402;52.670;6.750;2023-11-21T01:17:05;8.10;99.90
60293;DHT22;52402;52.670;6.750;2023-11-21T01:19:31;8.10;99.90
60293;DHT22;52402;52.670;6.750;2023-11-21T01:21:56;8.10;99.90
60293;DHT22;52402;52.670;6.750;2023-11-21T01:24:23;8.10;99.90
60293;DHT22;52402;52.670;6.750;2023-11-21T01:26:51;8.20;99.90
60293;DHT22;52402;52.670;6.750;2023-11-21T01:29:19;8.20;99.90
60293;DHT22;52402;52.670;6.750;2023-11-21T01:31:47;8.10;99.90
60293;DHT22;52402;52.670;6.750;2023-11-21T01:34:12;8.20;99.90
60293;DHT22;52402;52.670;6.750;2023-11-21T01:36:39;8.20;99.90
60293;DHT22;52402;52.670;6.750;2023-11-21T01:39:05;8.20;99.90
60293;DHT22;52402;52.670;6.750;2023-11-21T01:41:42;8.20;99.90
60293;DHT22;52402;52.670;6.750;2023-11-21T01:44:11;8.20;99.90
60293;DHT22;52402;52.670;6.750;2023-11-21T01:46:47;8.20;99.90
60293;DHT22;52402;52.670;6.750;2023-11-21T01:49:13;8.20;99.90
60293;DHT22;52402;52.670;6.750;2023-11-21T01:51:45;8.20;99.90
60293;DHT22;52402;52.670;6.750;2023-11-21T01:54:12;8.30;99.90
60293;DHT22;52402;52.670;6.750;2023-11-21T01:56:46;8.30;99.90
60293;DHT22;52402;52.670;6.750;2023-11-21T01:59:20;8.30;99.90
60293;DHT22;52402;52.670;6.750;2023-11-21T02:01:51;8.30;99.90
60293;DHT22;52402;52.670;6.750;2023-11-21T02:04:20;8.30;99.90
60293;DHT22;52402;52.670;6.750;2023-11-21T02:06:51;8.30;99.90
60293;DHT22;52402;52.670;6.750;2023-11-21T02:09:17;8.30;99.90
60293;DHT22;52402;52.670;6.750;2023-11-21T02:11:48;8.30;99.90
60293;DHT22;52402;52.670;6.750;2023-11-21T02:14:14;8.20;99.90
60293;DHT22;52402;52.670;6.750;2023-11-21T02:16:40;8.30;99.90
60293;DHT22;52402;52.670;6.750;2023-11-21T02:19:07;8.20;99.90
60293;DHT22;52402;52.670;6.750;2023-11-21T02:21:34;8.30;99.90
60293;DHT22;52402;52.670;6.750;2023-11-21T02:24:01;8.30;99.90
60293;DHT22;52402;52.670;6.750;2023-11-21T02:26:27;8.30;99.90
60293;DHT22;52402;52.670;6.750;2023-11-21T02:28:55;8.20;99.90
60293;DHT22;52402;52.670;6.750;2023-11-21T02:31:20;8.30;99.90
60293;DHT22;52402;52.670;6.750;2023-11-21T02:33:46;8.20;99.90
60293;DHT22;52402;52.670;6.750;2023-11-21T02:36:11;8.20;99.90
60293;DHT22;52402;52.670;6.750;2023-11-21T02:38:37;8.30;99.90
60293;DHT22;52402;52.670;6.750;2023-11-21T02:41:03;8.30;99.90
60293;DHT22;52402;52.670;6.750;2023-11-21T02:43:29;8.20;99.90
60293;DHT22;52402;52.670;6.750;2023-11-21T02:45:55;8.30;99.90
60293;DHT22;52402;52.670;6.750;2023-11-21T02:48:20;8.20;99.90
60293;DHT22;52402;52.670;6.750;2023-11-21T02:50:49;8.30;99.90
60293;DHT22;52402;52.670;6.750;2023-11-21T02:53:16;8.30;99.90
60293;DHT22;52402;52.670;6.750;2023-11-21T02:55:41;8.30;99.90
60293;DHT22;52402;52.670;6.750;2023-11-21T02:58:07;8.30;99.90
60293;DHT22;52402;52.670;6.750;2023-11-21T03:00:33;8.30;99.90
60293;DHT22;52402;52.670;6.750;2023-11-21T03:03:06;8.30;99.90
60293;DHT22;52402;52.670;6.750;2023-11-21T03:05:31;8.30;99.90
60293;DHT22;52402;52.670;6.750;2023-11-21T03:07:57;8.30;99.90
60293;DHT22;52402;52.670;6.750;2023-11-21T03:10:23;8.30;99.90
60293;DHT22;52402;52.670;6.750;2023-11-21T03:12:48;8.30;99.90
60293;DHT22;52402;52.670;6.750;2023-11-21T03:15:14;8.30;99.90
60293;DHT22;52402;52.670;6.750;2023-11-21T03:17:40;8.30;99.90
60293;DHT22;52402;52.670;6.750;2023-11-21T03:20:06;8.30;99.90
60293;DHT22;52402;52.670;6.750;2023-11-21T03:22:36;8.30;99.90
60293;DHT22;52402;52.670;6.750;2023-11-21T03:25:06;8.30;99.90
60293;DHT22;52402;52.670;6.750;2023-11-21T03:27:38;8.30;99.90
60293;DHT22;52402;52.670;6.750;2023-11-21T03:30:04;8.30;99.90
60293;DHT22;52402;52.670;6.750;2023-11-21T03:32:34;8.30;99.90
60293;DHT22;52402;52.670;6.750;2023-11-21T03:35:01;8.30;99.90
60293;DHT22;52402;52.670;6.750;2023-11-21T03:37:27;8.30;99.90
60293;DHT22;52402;52.670;6.750;2023-11-21T03:39:58;8.30;99.90
60293;DHT22;52402;52.670;6.750;2023-11-21T03:42:26;8.30;99.90
60293;DHT22;52402;52.670;6.750;2023-11-21T03:44:57;8.30;99.90
60293;DHT22;52402;52.670;6.750;2023-11-21T03:47:27;8.30;99.90
60293;DHT22;52402;52.670;6.750;2023-11-21T03:49:53;8.30;99.90
60293;DHT22;52402;52.670;6.750;2023-11-21T03:52:19;8.40;99.90
60293;DHT22;52402;52.670;6.750;2023-11-21T03:54:50;8.40;99.90
60293;DHT22;52402;52.670;6.750;2023-11-21T03:57:15;8.30;99.90
60293;DHT22;52402;52.670;6.750;2023-11-21T03:59:44;8.40;99.90
60293;DHT22;52402;52.670;6.750;2023-11-21T04:02:09;8.40;99.90
60293;DHT22;52402;52.670;6.750;2023-11-21T04:04:35;8.40;99.90
60293;DHT22;52402;52.670;6.750;2023-11-21T04:07:04;8.40;99.90
60293;DHT22;52402;52.670;6.750;2023-11-21T04:09:29;8.40;99.90
60293;DHT22;52402;52.670;6.750;2023-11-21T04:11:55;8.40;99.90
60293;DHT22;52402;52.670;6.750;2023-11-21T04:14:21;8.40;99.90
60293;DHT22;52402;52.670;6.750;2023-11-21T04:16:47;8.40;99.90
60293;DHT22;52402;52.670;6.750;2023-11-21T04:19:14;8.40;99.90
60293;DHT22;52402;52.670;6.750;2023-11-21T04:21:42;8.40;99.90
60293;DHT22;52402;52.670;6.750;2023-11-21T04:24:10;8.40;99.90
60293;DHT22;52402;52.670;6.750;2023-11-21T04:26:38;8.40;99.90
60293;DHT22;52402;52.670;6.750;2023-11-21T04:29:04;8.40;99.90
60293;DHT22;52402;52.670;6.750;2023-11-21T04:31:30;8.40;99.90
60293;DHT22;52402;52.670;6.750;2023-11-21T04:33:57;8.40;99.90
60293;DHT22;52402;52.670;6.750;2023-11-21T04:36:26;8.40;99.90
60293;DHT22;52402;52.670;6.750;2023-11-21T04:38:51;8.40;99.90
60293;DHT22;52402;52.670;6.750;2023-11-21T04:41:17;8.40;99.90
60293;DHT22;52402;52.670;6.750;2023-11-21T04:43:43;8.40;99.90
60293;DHT22;52402;52.670;6.750;2023-11-21T04:46:09;8.40;99.90
60293;DHT22;52402;52.670;6.750;2023-11-21T04:48:34;8.40;99.90
60293;DHT22;52402;52.670;6.750;2023-11-21T04:51:02;8.40;99.90
60293;DHT22;52402;52.670;6.750;2023-11-21T04:53:29;8.40;99.90
60293;DHT22;52402;52.670;6.750;2023-11-21T04:55:55;8.40;99.90
60293;DHT22;52402;52.670;6.750;2023-11-21T04:58:21;8.40;99.90
60293;DHT22;52402;52.670;6.750;2023-11-21T05:00:46;8.40;99.90
60293;DHT22;52402;52.670;6.750;2023-11-21T05:03:12;8.40;99.90
60293;DHT22;52402;52.670;6.750;2023-11-21T05:05:37;8.40;99.90
60293;DHT22;52402;52.670;6.750;2023-11-21T05:08:03;8.40;99.90
60293;DHT22;52402;52.670;6.750;2023-11-21T05:10:30;8.30;99.90
60293;DHT22;52402;52.670;6.750;2023-11-21T05:12:55;8.30;99.90
60293;DHT22;52402;52.670;6.750;2023-11-21T05:15:21;8.30;99.90
60293;DHT22;52402;52.670;6.750;2023-11-21T05:17:47;8.30;99.90
60293;DHT22;52402;52.670;6.750;2023-11-21T05:20:17;8.30;99.90
60293;DHT22;52402;52.670;6.750;2023-11-21T05:22:46;8.30;99.90
60293;DHT22;52402;52.670;6.750;2023-11-21T05:25:13;8.30;99.90
60293;DHT22;52402;52.670;6.750;2023-11-21T05:27:39;8.30;99.90
60293;DHT22;52402;52.670;6.750;2023-11-21T05:30:05;8.20;99.90
60293;DHT22;52402;52.670;6.750;2023-11-21T05:32:34;8.30;99.90
60293;DHT22;52402;52.670;6.750;2023-11-21T05:35:00;8.30;99.90
60293;DHT22;52402;52.670;6.750;2023-11-21T05:37:29;8.30;99.90
60293;DHT22;52402;52.670;6.750;2023-11-21T05:39:55;8.30;99.90
60293;DHT22;52402;52.670;6.750;2023-11-21T05:42:22;8.30;99.90
60293;DHT22;52402;52.670;6.750;2023-11-21T05:44:49;8.30;99.90
60293;DHT22;52402;52.670;6.750;2023-11-21T05:47:14;8.30;99.90
60293;DHT22;52402;52.670;6.750;2023-11-21T05:49:40;8.30;99.90
60293;DHT22;52402;52.670;6.750;2023-11-21T05:52:06;8.40;99.90
60293;DHT22;52402;52.670;6.750;2023-11-21T05:54:32;8.30;99.90
60293;DHT22;52402;52.670;6.750;2023-11-21T05:56:58;8.40;99.90
60293;DHT22;52402;52.670;6.750;2023-11-21T05:59:23;8.30;99.90
60293;DHT22;52402;52.670;6.750;2023-11-21T06:01:49;8.40;99.90
60293;DHT22;52402;52.670;6.750;2023-11-21T06:04:15;8.40;99.90
60293;DHT22;52402;52.670;6.750;2023-11-21T06:06:40;8.40;99.90
60293;DHT22;52402;52.670;6.750;2023-11-21T06:09:06;8.40;99.90
60293;DHT22;52402;52.670;6.750;2023-11-21T06:11:37;8.40;99.90
60293;DHT22;52402;52.670;6.750;2023-11-21T06:14:03;8.40;99.90
60293;DHT22;52402;52.670;6.750;2023-11-21T06:16:28;8.40;99.90
60293;DHT22;52402;52.670;6.750;2023-11-21T06:18:57;8.40;99.90
60293;DHT22;52402;52.670;6.750;2023-11-21T06:21:23;8.40;99.90
60293;DHT22;52402;52.670;6.750;2023-11-21T06:23:56;8.40;99.90
60293;DHT22;52402;52.670;6.750;2023-11-21T06:29:12;8.30;99.90
60293;DHT22;52402;52.670;6.750;2023-11-21T06:31:38;8.40;99.90
60293;DHT22;52402;52.670;6.750;2023-11-21T06:34:06;8.40;99.90
60293;DHT22;52402;52.670;6.750;2023-11-21T06:36:35;8.40;99.90
60293;DHT22;52402;52.670;6.750;2023-11-21T06:39:04;8.40;99.90
60293;DHT22;52402;52.670;6.750;2023-11-21T06:41:36;8.40;99.90
60293;DHT22;52402;52.670;6.750;2023-11-21T06:44:04;8.40;99.90
60293;DHT22;52402;52.670;6.750;2023-11-21T06:46:30;8.40;99.90
60293;DHT22;52402;52.670;6.750;2023-11-21T06:48:55;8.50;99.90
60293;DHT22;52402;52.670;6.750;2023-11-21T06:51:21;8.50;99.90
60293;DHT22;52402;52.670;6.750;2023-11-21T06:53:46;8.40;99.90
60293;DHT22;52402;52.670;6.750;2023-11-21T06:56:16;8.50;99.90
60293;DHT22;52402;52.670;6.750;2023-11-21T06:58:42;8.40;99.90
60293;DHT22;52402;52.670;6.750;2023-11-21T07:01:08;8.40;99.90
60293;DHT22;52402;52.670;6.750;2023-11-21T07:03:34;8.50;99.90
60293;DHT22;52402;52.670;6.750;2023-11-21T07:05:59;8.40;99.90
60293;DHT22;52402;52.670;6.750;2023-11-21T07:08:25;8.50;99.90
60293;DHT22;52402;52.670;6.750;2023-11-21T07:10:50;8.40;99.90
60293;DHT22;52402;52.670;6.750;2023-11-21T07:13:16;8.50;99.90
60293;DHT22;52402;52.670;6.750;2023-11-21T07:15:42;8.50;99.90
60293;DHT22;52402;52.670;6.750;2023-11-21T07:18:10;8.50;99.90
60293;DHT22;52402;52.670;6.750;2023-11-21T07:20:35;8.50;99.90
60293;DHT22;52402;52.670;6.750;2023-11-21T07:23:01;8.50;99.90
60293;DHT22;52402;52.670;6.750;2023-11-21T07:25:26;8.50;99.90
60293;DHT22;52402;52.670;6.750;2023-11-21T07:27:52;8.50;99.90
60293;DHT22;52402;52.670;6.750;2023-11-21T07:30:20;8.50;99.90
60293;DHT22;52402;52.670;6.750;2023-11-21T07:32:48;8.50;99.90
60293;DHT22;52402;52.670;6.750;2023-11-21T07:35:14;8.50;99.90
60293;DHT22;52402;52.670;6.750;2023-11-21T07:37:39;8.50;99.90
60293;DHT22;52402;52.670;6.750;2023-11-21T07:40:05;8.50;99.90
60293;DHT22;52402;52.670;6.750;2023-11-21T07:42:34;8.50;99.90
60293;DHT22;52402;52.670;6.750;2023-11-21T07:44:59;8.50;99.90
60293;DHT22;52402;52.670;6.750;2023-11-21T07:47:25;8.50;99.90
60293;DHT22;52402;52.670;6.750;2023-11-21T07:49:53;8.60;99.90
60293;DHT22;52402;52.670;6.750;2023-11-21T07:52:21;8.60;99.90
60293;DHT22;52402;52.670;6.750;2023-11-21T07:54:47;8.60;99.90
60293;DHT22;52402;52.670;6.750;2023-11-21T07:57:12;8.60;99.90
60293;DHT22;52402;52.670;6.750;2023-11-21T07:59:39;8.60;99.90
60293;DHT22;52402;52.670;6.750;2023-11-21T08:02:06;8.60;99.90
60293;DHT22;52402;52.670;6.750;2023-11-21T08:04:32;8.60;99.90
60293;DHT22;52402;52.670;6.750;2023-11-21T08:06:58;8.60;99.90
60293;DHT22;52402;52.670;6.750;2023-11-21T08:09:24;8.60;99.90
60293;DHT22;52402;52.670;6.750;2023-11-21T08:11:49;8.60;99.90
60293;DHT22;52402;52.670;6.750;2023-11-21T08:14:16;8.70;99.90
60293;DHT22;52402;52.670;6.750;2023-11-21T08:16:42;8.70;99.90
60293;DHT22;52402;52.670;6.750;2023-11-21T08:19:10;8.70;99.90
60293;DHT22;52402;52.670;6.750;2023-11-21T08:21:36;8.70;99.90
60293;DHT22;52402;52.670;6.750;2023-11-21T08:24:05;8.70;99.90
60293;DHT22;52402;52.670;6.750;2023-11-21T08:26:31;8.80;99.90
60293;DHT22;52402;52.670;6.750;2023-11-21T08:28:56;8.80;99.90
60293;DHT22;52402;52.670;6.750;2023-11-21T08:31:25;8.90;99.90
60293;DHT22;52402;52.670;6.750;2023-11-21T08:33:51;8.90;99.90
60293;DHT22;52402;52.670;6.750;2023-11-21T08:36:21;9.00;99.90
60293;DHT22;52402;52.670;6.750;2023-11-21T08:38:52;9.10;99.90
60293;DHT22;52402;52.670;6.750;2023-11-21T08:41:18;9.10;99.90
60293;DHT22;52402;52.670;6.750;2023-11-21T08:43:47;9.20;99.90
60293;DHT22;52402;52.670;6.750;2023-11-21T08:46:14;9.30;99.90
60293;DHT22;52402;52.670;6.750;2023-11-21T08:48:40;9.30;99.90
60293;DHT22;52402;52.670;6.750;2023-11-21T08:51:06;9.30;99.90
60293;DHT22;52402;52.670;6.750;2023-11-21T08:53:32;9.30;99.90
60293;DHT22;52402;52.670;6.750;2023-11-21T08:55:58;9.40;99.90
60293;DHT22;52402;52.670;6.750;2023-11-21T08:58:24;9.40;99.90
60293;DHT22;52402;52.670;6.750;2023-11-21T09:00:49;9.50;99.90
60293;DHT22;52402;52.670;6.750;2023-11-21T09:03:15;9.60;99.90
60293;DHT22;52402;52.670;6.750;2023-11-21T09:05:41;9.60;99.90
60293;DHT22;52402;52.670;6.750;2023-11-21T09:08:08;9.60;99.90
60293;DHT22;52402;52.670;6.750;2023-11-21T09:10:34;9.60;99.90
60293;DHT22;52402;52.670;6.750;2023-11-21T09:13:02;9.60;99.90
60293;DHT22;52402;52.670;6.750;2023-11-21T09:15:28;9.60;99.90
60293;DHT22;52402;52.670;6.750;2023-11-21T09:17:56;9.60;99.90
60293;DHT22;52402;52.670;6.750;2023-11-21T09:20:21;9.60;99.90
60293;DHT22;52402;52.670;6.750;2023-11-21T09:22:48;9.50;99.90
60293;DHT22;52402;52.670;6.750;2023-11-21T09:25:14;9.50;99.90
60293;DHT22;52402;52.670;6.750;2023-11-21T09:27:43;9.50;99.90
60293;DHT22;52402;52.670;6.750;2023-11-21T09:30:09;9.40;99.90
60293;DHT22;52402;52.670;6.750;2023-11-21T09:32:35;9.40;99.90
60293;DHT22;52402;52.670;6.750;2023-11-21T09:35:06;9.40;99.90
60293;DHT22;52402;52.670;6.750;2023-11-21T09:37:34;9.40;99.90
60293;DHT22;52402;52.670;6.750;2023-11-21T09:40:07;9.40;99.90
60293;DHT22;52402;52.670;6.750;2023-11-21T09:42:52;9.30;99.90
60293;DHT22;52402;52.670;6.750;2023-11-21T09:45:25;9.30;99.90
60293;DHT22;52402;52.670;6.750;2023-11-21T09:47:53;9.20;99.90
60293;DHT22;52402;52.670;6.750;2023-11-21T09:50:22;9.20;99.90
60293;DHT22;52402;52.670;6.750;2023-11-21T09:55:27;9.20;99.90
60293;DHT22;52402;52.670;6.750;2023-11-21T09:57:56;9.20;99.90
60293;DHT22;52402;52.670;6.750;2023-11-21T10:00:22;9.20;99.90
60293;DHT22;52402;52.670;6.750;2023-11-21T10:02:49;9.20;99.90
60293;DHT22;52402;52.670;6.750;2023-11-21T10:05:16;9.10;99.90
60293;DHT22;52402;52.670;6.750;2023-11-21T10:07:45;9.10;99.90
60293;DHT22;52402;52.670;6.750;2023-11-21T10:10:13;9.10;99.90
60293;DHT22;52402;52.670;6.750;2023-11-21T10:12:43;9.00;99.90
60293;DHT22;52402;52.670;6.750;2023-11-21T10:15:11;9.00;99.90
60293;DHT22;52402;52.670;6.750;2023-11-21T10:17:44;9.00;99.90
60293;DHT22;52402;52.670;6.750;2023-11-21T10:20:11;9.00;99.90
60293;DHT22;52402;52.670;6.750;2023-11-21T10:22:42;9.00;99.90
60293;DHT22;52402;52.670;6.750;2023-11-21T10:25:09;8.90;99.90
60293;DHT22;52402;52.670;6.750;2023-11-21T10:27:36;8.90;99.90
60293;DHT22;52402;52.670;6.750;2023-11-21T10:30:05;8.90;99.90
60293;DHT22;52402;52.670;6.750;2023-11-21T10:32:30;8.90;99.90
60293;DHT22;52402;52.670;6.750;2023-11-21T10:35:00;8.80;99.90
60293;DHT22;52402;52.670;6.750;2023-11-21T10:37:28;8.80;99.90
60293;DHT22;52402;52.670;6.750;2023-11-21T10:39:59;8.70;99.90
60293;DHT22;52402;52.670;6.750;2023-11-21T10:42:30;8.70;99.90
60293;DHT22;52402;52.670;6.750;2023-11-21T10:45:00;8.70;99.90
60293;DHT22;52402;52.670;6.750;2023-11-21T10:47:26;8.70;99.90
60293;DHT22;52402;52.670;6.750;2023-11-21T10:49:54;8.70;99.90
60293;DHT22;52402;52.670;6.750;2023-11-21T10:52:20;8.70;99.90
60293;DHT22;52402;52.670;6.750;2023-11-21T10:54:46;8.70;99.90
60293;DHT22;52402;52.670;6.750;2023-11-21T10:57:18;8.70;99.90
60293;DHT22;52402;52.670;6.750;2023-11-21T10:59:47;8.70;99.90
60293;DHT22;52402;52.670;6.750;2023-11-21T11:02:25;8.80;99.90
60293;DHT22;52402;52.670;6.750;2023-11-21T11:04:53;8.80;99.90
60293;DHT22;52402;52.670;6.750;2023-11-21T11:07:21;9.00;99.90
60293;DHT22;52402;52.670;6.750;2023-11-21T11:09:51;9.00;99.90
60293;DHT22;52402;52.670;6.750;2023-11-21T11:12:26;9.10;99.90
60293;DHT22;52402;52.670;6.750;2023-11-21T11:14:56;9.10;99.90
60293;DHT22;52402;52.670;6.750;2023-11-21T11:17:25;9.10;99.90
60293;DHT22;52402;52.670;6.750;2023-11-21T11:19:53;9.10;99.90
60293;DHT22;52402;52.670;6.750;2023-11-21T11:22:37;9.10;99.90
60293;DHT22;52402;52.670;6.750;2023-11-21T11:36:22;9.00;99.90
60293;DHT22;52402;52.670;6.750;2023-11-21T11:38:53;8.90;99.90
60293;DHT22;52402;52.670;6.750;2023-11-21T11:41:30;8.90;99.90
60293;DHT22;52402;52.670;6.750;2023-11-21T11:44:00;8.80;99.90
60293;DHT22;52402;52.670;6.750;2023-11-21T11:46:46;8.80;99.90
60293;DHT22;52402;52.670;6.750;2023-11-21T11:49:27;8.80;99.90
60293;DHT22;52402;52.670;6.750;2023-11-21T11:54:56;8.80;99.90
60293;DHT22;52402;52.670;6.750;2023-11-21T11:57:24;8.80;99.90
60293;DHT22;52402;52.670;6.750;2023-11-21T12:00:11;8.80;99.90
60293;DHT22;52402;52.670;6.750;2023-11-21T12:02:47;8.80;99.90
60293;DHT22;52402;52.670;6.750;2023-11-21T12:05:17;8.80;99.90
60293;DHT22;52402;52.670;6.750;2023-11-21T12:07:55;8.80;99.90
60293;DHT22;52402;52.670;6.750;2023-11-21T12:10:26;8.80;99.90
60293;DHT22;52402;52.670;6.750;2023-11-21T12:12:57;8.80;99.90
60293;DHT22;52402;52.670;6.750;2023-11-21T12:15:24;8.80;99.90
60293;DHT22;52402;52.670;6.750;2023-11-21T12:17:51;8.70;99.90
60293;DHT22;52402;52.670;6.750;2023-11-21T12:20:22;8.70;99.90
60293;DHT22;52402;52.670;6.750;2023-11-21T12:22:48;8.70;99.90
60293;DHT22;52402;52.670;6.750;2023-11-21T12:25:19;8.80;99.90
60293;DHT22;52402;52.670;6.750;2023-11-21T12:27:50;8.80;99.90
60293;DHT22;52402;52.670;6.750;2023-11-21T12:30:17;8.80;99.90
60293;DHT22;52402;52.670;6.750;2023-11-21T12:32:44;8.80;99.90
60293;DHT22;52402;52.670;6.750;2023-11-21T12:35:12;8.80;99.90
60293;DHT22;52402;52.670;6.750;2023-11-21T12:37:41;8.70;99.90
60293;DHT22;52402;52.670;6.750;2023-11-21T12:40:25;8.80;99.90
60293;DHT22;52402;52.670;6.750;2023-11-21T12:42:58;8.70;99.90
60293;DHT22;52402;52.670;6.750;2023-11-21T12:45:24;8.70;99.90
60293;DHT22;52402;52.670;6.750;2023-11-21T12:48:01;8.70;99.90
60293;DHT22;52402;52.670;6.750;2023-11-21T12:50:31;8.70;99.90
60293;DHT22;52402;52.670;6.750;2023-11-21T12:53:12;8.70;99.90
60293;DHT22;52402;52.670;6.750;2023-11-21T12:55:38;8.70;99.90
60293;DHT22;52402;52.670;6.750;2023-11-21T12:58:06;8.70;99.90
60293;DHT22;52402;52.670;6.750;2023-11-21T13:03:06;8.70;99.90
60293;DHT22;52402;52.670;6.750;2023-11-21T13:05:37;8.60;99.90
60293;DHT22;52402;52.670;6.750;2023-11-21T13:08:09;8.50;99.90
60293;DHT22;52402;52.670;6.750;2023-11-21T13:10:39;8.60;99.90
60293;DHT22;52402;52.670;6.750;2023-11-21T13:13:10;8.60;99.90
60293;DHT22;52402;52.670;6.750;2023-11-21T13:15:46;8.60;99.90
60293;DHT22;52402;52.670;6.750;2023-11-21T13:18:18;8.60;99.90
60293;DHT22;52402;52.670;6.750;2023-11-21T13:20:49;8.60;99.90
60293;DHT22;52402;52.670;6.750;2023-11-21T13:23:18;8.60;99.90
60293;DHT22;52402;52.670;6.750;2023-11-21T13:25:44;8.70;99.90
60293;DHT22;52402;52.670;6.750;2023-11-21T13:28:14;8.70;99.90
60293;DHT22;52402;52.670;6.750;2023-11-21T13:30:49;8.70;99.90
60293;DHT22;52402;52.670;6.750;2023-11-21T13:33:31;8.70;99.90
60293;DHT22;52402;52.670;6.750;2023-11-21T13:36:06;8.70;99.90
60293;DHT22;52402;52.670;6.750;2023-11-21T13:38:37;8.70;99.90
60293;DHT22;52402;52.670;6.750;2023-11-21T13:41:09;8.60;99.90
60293;DHT22;52402;52.670;6.750;2023-11-21T13:43:39;8.60;99.90
60293;DHT22;52402;52.670;6.750;2023-11-21T13:46:10;8.60;99.90
60293;DHT22;52402;52.670;6.750;2023-11-21T13:48:42;8.60;99.90
60293;DHT22;52402;52.670;6.750;2023-11-21T13:51:11;8.60;99.90
60293;DHT22;52402;52.670;6.750;2023-11-21T13:53:48;8.50;99.90
60293;DHT22;52402;52.670;6.750;2023-11-21T13:56:16;8.50;99.90
60293;DHT22;52402;52.670;6.750;2023-11-21T13:58:52;8.50;99.90
60293;DHT22;52402;52.670;6.750;2023-11-21T14:01:20;8.50;99.90
60293;DHT22;52402;52.670;6.750;2023-11-21T14:04:02;8.40;99.90
60293;DHT22;52402;52.670;6.750;2023-11-21T14:06:47;8.30;99.90
60293;DHT22;52402;52.670;6.750;2023-11-21T14:09:22;8.30;99.90
60293;DHT22;52402;52.670;6.750;2023-11-21T14:11:54;8.20;99.90
60293;DHT22;52402;52.670;6.750;2023-11-21T14:14:24;8.10;99.90
60293;DHT22;52402;52.670;6.750;2023-11-21T14:16:53;8.00;99.90
60293;DHT22;52402;52.670;6.750;2023-11-21T14:19:21;8.00;99.90
60293;DHT22;52402;52.670;6.750;2023-11-21T14:21:47;8.00;99.90
60293;DHT22;52402;52.670;6.750;2023-11-21T14:24:18;8.00;99.90
60293;DHT22;52402;52.670;6.750;2023-11-21T14:26:46;8.00;99.90
60293;DHT22;52402;52.670;6.750;2023-11-21T14:29:13;8.00;99.90
60293;DHT22;52402;52.670;6.750;2023-11-21T14:31:45;8.00;99.90
60293;DHT22;52402;52.670;6.750;2023-11-21T14:34:11;8.00;99.90
60293;DHT22;52402;52.670;6.750;2023-11-21T14:36:39;8.00;99.90
60293;DHT22;52402;52.670;6.750;2023-11-21T14:39:09;7.90;99.90
60293;DHT22;52402;52.670;6.750;2023-11-21T14:41:45;7.90;99.90
60293;DHT22;52402;52.670;6.750;2023-11-21T14:44:11;7.90;99.90
60293;DHT22;52402;52.670;6.750;2023-11-21T14:46:38;7.90;99.90
60293;DHT22;52402;52.670;6.750;2023-11-21T14:49:05;7.80;99.90
60293;DHT22;52402;52.670;6.750;2023-11-21T14:51:47;7.80;99.90
60293;DHT22;52402;52.670;6.750;2023-11-21T14:54:36;7.80;99.90
60293;DHT22;52402;52.670;6.750;2023-11-21T14:57:12;7.80;99.90
60293;DHT22;52402;52.670;6.750;2023-11-21T14:59:48;7.80;99.90
60293;DHT22;52402;52.670;6.750;2023-11-21T15:02:23;7.80;99.90
60293;DHT22;52402;52.670;6.750;2023-11-21T15:05:09;7.80;99.90
60293;DHT22;52402;52.670;6.750;2023-11-21T15:07:50;7.80;99.90
60293;DHT22;52402;52.670;6.750;2023-11-21T15:10:20;7.80;99.90
60293;DHT22;52402;52.670;6.750;2023-11-21T15:12:54;7.80;99.90
60293;DHT22;52402;52.670;6.750;2023-11-21T15:15:19;7.80;99.90
60293;DHT22;52402;52.670;6.750;2023-11-21T15:17:46;7.80;99.90
60293;DHT22;52402;52.670;6.750;2023-11-21T15:20:13;7.80;99.90
60293;DHT22;52402;52.670;6.750;2023-11-21T15:22:44;7.70;99.90
60293;DHT22;52402;52.670;6.750;2023-11-21T15:25:10;7.70;99.90
60293;DHT22;52402;52.670;6.750;2023-11-21T15:27:36;7.70;99.90
60293;DHT22;52402;52.670;6.750;2023-11-21T15:30:02;7.70;99.90
60293;DHT22;52402;52.670;6.750;2023-11-21T15:32:29;7.70;99.90
60293;DHT22;52402;52.670;6.750;2023-11-21T15:34:54;7.70;99.90
60293;DHT22;52402;52.670;6.750;2023-11-21T15:37:22;7.70;99.90
60293;DHT22;52402;52.670;6.750;2023-11-21T15:39:48;7.70;99.90
60293;DHT22;52402;52.670;6.750;2023-11-21T15:42:16;7.70;99.90
60293;DHT22;52402;52.670;6.750;2023-11-21T15:44:42;7.70;99.90
60293;DHT22;52402;52.670;6.750;2023-11-21T15:47:07;7.70;99.90
60293;DHT22;52402;52.670;6.750;2023-11-21T15:49:34;7.60;99.90
60293;DHT22;52402;52.670;6.750;2023-11-21T15:52:02;7.60;99.90
60293;DHT22;52402;52.670;6.750;2023-11-21T15:54:28;7.60;99.90
60293;DHT22;52402;52.670;6.750;2023-11-21T15:56:55;7.60;99.90
60293;DHT22;52402;52.670;6.750;2023-11-21T15:59:24;7.50;99.90
60293;DHT22;52402;52.670;6.750;2023-11-21T16:01:55;7.50;99.90
60293;DHT22;52402;52.670;6.750;2023-11-21T16:04:20;7.50;99.90
60293;DHT22;52402;52.670;6.750;2023-11-21T16:06:47;7.50;99.90
60293;DHT22;52402;52.670;6.750;2023-11-21T16:09:15;7.40;99.90
60293;DHT22;52402;52.670;6.750;2023-11-21T16:11:46;7.30;99.90
60293;DHT22;52402;52.670;6.750;2023-11-21T16:14:12;7.30;99.90